Terminal Aerodrome Forecast
Issued by NWS Charleston, SC

Home | Current Version | Previous Version | Text Only | Print | Product List | Glossary On
Versions: 1 2 3 4 5 6 7 8 9 10 11 12
533
FTUS42 KCHS 201727
TAFCHS
TAF
KCHS 201727Z 2018/2118 10004KT P6SM SCT250
     FM211500 08005KT P6SM SCT035=

USA.gov is the U.S. government's official web portal to all federal, state and local government web resources and services.